Time;durP1;ratioP1;P1;durP2;ratioP2;P2;SDS_P1;SDS_P2;PMS_P1;PMS_P2;Temp;Humidity;BMP_temperature;BMP_pressure;BME280_temperature;BME280_humidity;BME280_pressure;Samples;Min_cycle;Max_cycle;Signal;HPM_P1;HPM_P2
2021/12/15 00:01:26;;;;;;;21.52;13.32;;;;;;;2.28;78.68;94933.23;827446;71;30340;-80
2021/12/15 00:16:18;;;;;;;22.20;13.80;;;;;;;2.63;78.44;94989.94;831805;71;32790;-78
2021/12/15 00:31:33;;;;;;;22.98;13.55;;;;;;;2.58;78.30;95003.05;833490;71;33210;-79
2021/12/15 00:46:25;;;;;;;24.45;14.18;;;;;;;2.59;78.69;95004.62;829022;71;33196;-78
2021/12/15 01:31:34;;;;;;;22.35;13.50;;;;;;;2.45;78.36;94977.36;828989;71;32846;-76
2021/12/15 02:01:27;;;;;;;;;;;;;;;;;;;;;
2021/12/15 02:16:42;;;;;;;23.67;13.45;;;;;;;2.36;77.78;94980.02;828441;71;33266;-79
2021/12/15 02:46:15;;;;;;;23.25;13.62;;;;;;;2.20;77.26;94997.77;825357;71;32678;-80
2021/12/15 03:01:42;;;;;;;21.65;12.80;;;;;;;2.20;77.64;94994.39;835480;71;32735;-82
2021/12/15 03:16:31;;;;;;;18.90;11.88;;;;;;;2.20;76.57;94995.17;818662;71;33419;-79
2021/12/15 03:46:17;;;;;;;16.93;11.35;;;;;;;2.32;75.55;95001.67;821852;71;33329;-78
2021/12/15 04:02:00;;;;;;;14.73;10.75;;;;;;;2.46;75.15;95010.03;831893;69;31302;-78
2021/12/15 04:31:19;;;;;;;19.30;10.08;;;;;;;2.35;74.00;95043.16;827834;71;30237;-79
2021/12/15 04:46:32;;;;;;;17.15;9.98;;;;;;;2.23;73.58;95044.92;829067;71;33247;-76
2021/12/15 05:01:14;;;;;;;14.85;10.20;;;;;;;2.07;73.45;95038.09;833752;71;32751;-78
2021/12/15 05:16:24;;;;;;;18.55;11.30;;;;;;;2.07;73.69;95034.69;827792;71;30929;-78
2021/12/15 05:31:09;;;;;;;15.25;10.20;;;;;;;2.33;73.55;95053.75;834738;71;29839;-83
2021/12/15 05:46:09;;;;;;;18.80;11.93;;;;;;;2.45;72.51;95060.74;829034;70;29786;-83
2021/12/15 06:01:09;;;;;;;20.00;12.50;;;;;;;2.45;72.68;95064.11;828197;71;29817;-83
2021/12/15 06:16:10;;;;;;;19.73;11.85;;;;;;;2.44;72.14;95069.02;828605;71;30285;-80
2021/12/15 06:31:11;;;;;;;19.30;11.18;;;;;;;2.43;71.65;95076.49;816654;70;29732;-77
2021/12/15 07:01:10;;;;;;;17.55;12.85;;;;;;;2.54;71.77;95085.33;828434;71;30328;-80
2021/12/15 07:16:18;;;;;;;19.87;12.53;;;;;;;2.56;71.45;95095.73;834609;71;32610;-81
2021/12/15 07:31:10;;;;;;;14.45;10.65;;;;;;;2.61;71.09;95111.39;829295;71;29714;-81
2021/12/15 07:46:17;;;;;;;14.80;11.03;;;;;;;2.73;70.84;95123.59;829553;71;32810;-81
2021/12/15 08:01:09;;;;;;;14.43;9.85;;;;;;;2.77;70.10;95141.05;829026;71;29785;-82
2021/12/15 08:16:08;;;;;;;15.10;10.25;;;;;;;2.78;70.23;95150.42;829233;71;30271;-82
2021/12/15 08:31:14;;;;;;;14.83;9.03;;;;;;;2.73;70.07;95171.01;828131;71;32800;-83
2021/12/15 08:46:17;;;;;;;15.58;10.68;;;;;;;2.65;70.60;95173.91;827581;71;33129;-83
2021/12/15 09:01:09;;;;;;;10.98;7.95;;;;;;;2.68;70.26;95179.18;834834;71;29820;-81
2021/12/15 09:16:13;;;;;;;9.20;6.97;;;;;;;2.65;69.99;95180.91;834780;71;32401;-81
2021/12/15 09:31:15;;;;;;;12.15;7.90;;;;;;;2.64;70.14;95176.23;834582;71;33062;-83
2021/12/15 09:46:29;;;;;;;14.07;9.45;;;;;;;2.61;70.49;95174.07;828491;71;32712;-83
2021/12/15 10:31:28;;;;;;;11.05;8.85;;;;;;;2.85;70.29;95156.01;827002;71;33361;-79
2021/12/15 10:46:17;;;;;;;12.58;9.68;;;;;;;3.09;69.99;95141.29;828885;71;32718;-80
2021/12/15 11:01:40;;;;;;;15.40;10.13;;;;;;;3.18;69.85;95143.33;834061;71;33197;-80
2021/12/15 11:16:10;;;;;;;13.70;9.63;;;;;;;3.19;70.39;95133.23;833989;71;30197;-80
2021/12/15 11:31:24;;;;;;;13.62;9.70;;;;;;;3.26;70.98;95129.22;827617;71;33582;-79
2021/12/15 11:46:32;;;;;;;16.93;11.18;;;;;;;3.33;70.83;95112.27;828058;71;30378;-78
2021/12/15 12:01:42;;;;;;;15.45;11.45;;;;;;;3.41;70.55;95123.08;828679;71;33154;-82
2021/12/15 12:16:10;;;;;;;16.07;12.10;;;;;;;3.46;70.32;95125.50;828032;71;30789;-81
2021/12/15 12:31:17;;;;;;;16.05;11.85;;;;;;;3.29;70.43;95100.77;827333;71;32754;-80
2021/12/15 12:46:31;;;;;;;23.98;13.45;;;;;;;3.31;70.96;95122.08;833876;71;30754;-83
2021/12/15 13:01:13;;;;;;;19.70;11.70;;;;;;;3.17;71.07;95124.10;828235;71;30277;-81
2021/12/15 13:16:24;;;;;;;17.00;11.28;;;;;;;3.05;71.77;95123.30;833962;71;32735;-82
2021/12/15 13:31:11;;;;;;;24.45;15.60;;;;;;;3.10;72.20;95101.38;828187;71;29785;-83
2021/12/15 13:46:30;;;;;;;21.23;13.70;;;;;;;3.16;72.04;95072.77;833893;71;32793;-81
2021/12/15 14:01:12;;;;;;;19.98;13.10;;;;;;;3.15;71.78;95098.91;828261;71;29731;-81
2021/12/15 14:16:09;;;;;;;18.85;12.25;;;;;;;3.13;71.94;95114.69;828411;71;29847;-81
2021/12/15 14:31:15;;;;;;;21.40;14.30;;;;;;;3.12;72.09;95144.23;793986;74;30494;-81
2021/12/15 14:46:24;;;;;;;19.35;13.75;;;;;;;3.01;72.17;95148.88;827515;71;32717;-84
2021/12/15 15:01:16;;;;;;;18.30;13.08;;;;;;;2.88;72.03;95150.37;827228;71;32713;-82
2021/12/15 15:16:33;;;;;;;25.57;16.73;;;;;;;2.75;72.76;95164.31;833723;71;31301;-81
2021/12/15 15:46:12;;;;;;;21.15;15.30;;;;;;;2.36;73.65;95192.34;833756;71;30291;-79
2021/12/15 16:01:11;;;;;;;23.25;15.28;;;;;;;2.35;74.08;95194.63;827991;71;30828;-81
2021/12/15 16:16:16;;;;;;;26.95;17.05;;;;;;;2.38;74.09;95209.23;827617;71;31447;-81
2021/12/15 16:31:19;;;;;;;23.32;14.25;;;;;;;2.33;74.18;95196.16;822351;71;32682;-78
2021/12/15 16:46:57;;;;;;;21.42;13.98;;;;;;;2.28;74.13;95192.64;833724;71;32738;-80
2021/12/15 17:01:42;;;;;;;20.95;13.98;;;;;;;2.27;74.17;95213.05;821706;71;33337;-79
2021/12/15 17:16:22;;;;;;;22.52;14.33;;;;;;;2.29;74.29;95217.50;835319;71;31432;-81
2021/12/15 17:31:20;;;;;;;22.85;14.38;;;;;;;2.32;74.28;95210.61;824967;71;29681;-78
2021/12/15 17:46:25;;;;;;;23.67;14.63;;;;;;;2.30;74.49;95210.83;833679;71;30896;-79
2021/12/15 18:31:22;;;;;;;25.85;16.42;;;;;;;2.21;75.33;95228.97;831750;71;32728;-80
2021/12/15 18:46:33;;;;;;;28.38;17.95;;;;;;;1.93;75.50;95200.48;831026;71;32697;-81
2021/12/15 19:01:45;;;;;;;22.13;15.55;;;;;;;2.19;75.88;95244.70;819432;71;32986;-81
2021/12/15 19:16:20;;;;;;;29.00;16.55;;;;;;;2.22;75.94;95251.25;800067;74;33005;-79
2021/12/15 19:31:39;;;;;;;28.85;18.37;;;;;;;2.20;76.08;95253.26;829177;71;32729;-80
2021/12/15 19:46:40;;;;;;;27.70;17.95;;;;;;;2.00;76.23;95214.64;822118;71;32827;-78
2021/12/15 20:01:36;;;;;;;19.48;13.53;;;;;;;2.16;76.16;95249.52;821508;71;32781;-80
2021/12/15 20:16:52;;;;;;;25.70;15.50;;;;;;;2.09;76.11;95235.84;834272;71;33815;-77
2021/12/15 20:31:49;;;;;;;24.72;15.75;;;;;;;2.12;76.60;95238.02;810152;72;32858;-82
2021/12/15 20:46:37;;;;;;;28.95;17.12;;;;;;;2.16;76.58;95283.17;835395;71;32817;-79
2021/12/15 21:01:48;;;;;;;28.40;16.97;;;;;;;2.22;76.45;95273.76;867755;68;32705;-79
2021/12/15 21:16:41;;;;;;;30.12;18.32;;;;;;;2.24;76.46;95266.57;834144;71;32787;-78
2021/12/15 21:31:45;;;;;;;30.27;17.32;;;;;;;2.12;76.42;95277.63;827633;71;32837;-79
2021/12/15 21:46:41;;;;;;;29.90;15.88;;;;;;;2.05;76.56;95291.63;813096;71;33590;-78
2021/12/15 22:31:16;;;;;;;27.32;16.48;;;;;;;1.80;77.07;95288.58;824991;71;31751;-80
2021/12/15 22:46:38;;;;;;;31.60;17.20;;;;;;;1.53;77.16;95269.40;832529;71;32736;-81
2021/12/15 23:01:46;;;;;;;29.25;17.02;;;;;;;1.53;77.55;95294.47;833410;71;33253;-80
2021/12/15 23:16:49;;;;;;;28.47;16.97;;;;;;;1.48;78.08;95290.42;827471;71;32849;-80
2021/12/15 23:31:19;;;;;;;28.10;15.70;;;;;;;1.43;77.68;95290.27;825871;71;32905;-80
